Search for airport 
image banner adimage banner adimage banner ad
image banner ad

N68 - Franklin County Rgnl

Located in Chambersburg, United States

ICAO - N68, IATA -

Data provided by Airmate  

General information

Coordinates: N39°58'23" W77°38'36"
Elevation is 688 feet MSL.
Magnetic variation is -11° East
View others Airports in Pennsylvania

Operational data

Special qualification required
Current time UTC:
Current local time:
METAR: KHGR 091353Z 19004KT 10SM -RA OVC065 08/04 A3010 RMK AO2 RAB43 SLP204 P0000 T00830039
View NOTAMs / SUP AIP / TFR affecting this airport [VIEW]
Communications frequencies: [VIEW]

Runways:

RWY identifierQFULength (ft)Width (ft)SurfaceLDA (ft)
0648°330075ASPH
24228°330075ASPH

Airport contact information

Address: Chambersburg United States

Satellite view of N68